sensor_id;sensor_type;location;lat;lon;timestamp;P1;durP1;ratioP1;P2;durP2;ratioP2
10174;SDS011;18221;38.704;0.152;2022-09-09T00:08:29;4.87;;;2.10;;
10174;SDS011;18221;38.704;0.152;2022-09-09T00:11:13;5.43;;;1.60;;
10174;SDS011;18221;38.704;0.152;2022-09-09T00:13:53;6.43;;;1.83;;
10174;SDS011;18221;38.704;0.152;2022-09-09T00:16:28;5.03;;;1.83;;
10174;SDS011;18221;38.704;0.152;2022-09-09T00:19:04;4.90;;;1.60;;
10174;SDS011;18221;38.704;0.152;2022-09-09T00:21:43;4.57;;;1.90;;
10174;SDS011;18221;38.704;0.152;2022-09-09T00:24:26;4.30;;;1.83;;
10174;SDS011;18221;38.704;0.152;2022-09-09T00:27:01;3.57;;;1.87;;
10174;SDS011;18221;38.704;0.152;2022-09-09T00:29:36;5.07;;;1.87;;
10174;SDS011;18221;38.704;0.152;2022-09-09T00:32:12;6.57;;;2.30;;
10174;SDS011;18221;38.704;0.152;2022-09-09T00:34:46;8.97;;;1.97;;
10174;SDS011;18221;38.704;0.152;2022-09-09T00:37:18;3.67;;;1.80;;
10174;SDS011;18221;38.704;0.152;2022-09-09T00:39:50;4.43;;;2.00;;
10174;SDS011;18221;38.704;0.152;2022-09-09T00:42:24;3.60;;;1.70;;
10174;SDS011;18221;38.704;0.152;2022-09-09T00:45:03;3.13;;;1.87;;
10174;SDS011;18221;38.704;0.152;2022-09-09T00:48:03;2.93;;;1.93;;
10174;SDS011;18221;38.704;0.152;2022-09-09T00:50:41;6.20;;;2.23;;
10174;SDS011;18221;38.704;0.152;2022-09-09T00:53:19;4.53;;;2.13;;
10174;SDS011;18221;38.704;0.152;2022-09-09T00:56:02;5.17;;;1.90;;
10174;SDS011;18221;38.704;0.152;2022-09-09T00:58:42;7.50;;;2.00;;
10174;SDS011;18221;38.704;0.152;2022-09-09T01:01:22;5.87;;;1.97;;
10174;SDS011;18221;38.704;0.152;2022-09-09T01:03:51;3.97;;;1.87;;
10174;SDS011;18221;38.704;0.152;2022-09-09T01:06:26;3.63;;;2.00;;
10174;SDS011;18221;38.704;0.152;2022-09-09T01:09:07;5.70;;;2.00;;
10174;SDS011;18221;38.704;0.152;2022-09-09T01:11:51;7.77;;;2.00;;
10174;SDS011;18221;38.704;0.152;2022-09-09T01:14:38;6.07;;;2.17;;
10174;SDS011;18221;38.704;0.152;2022-09-09T01:17:14;2.73;;;1.77;;
10174;SDS011;18221;38.704;0.152;2022-09-09T01:19:55;6.13;;;1.90;;
10174;SDS011;18221;38.704;0.152;2022-09-09T01:22:34;3.33;;;1.70;;
10174;SDS011;18221;38.704;0.152;2022-09-09T01:28:47;4.63;;;1.73;;
10174;SDS011;18221;38.704;0.152;2022-09-09T01:31:18;3.07;;;1.80;;
10174;SDS011;18221;38.704;0.152;2022-09-09T01:33:50;3.87;;;1.77;;
10174;SDS011;18221;38.704;0.152;2022-09-09T01:36:20;3.60;;;1.87;;
10174;SDS011;18221;38.704;0.152;2022-09-09T01:39:02;2.57;;;1.70;;
10174;SDS011;18221;38.704;0.152;2022-09-09T01:41:30;3.87;;;1.93;;
10174;SDS011;18221;38.704;0.152;2022-09-09T01:44:00;3.20;;;1.90;;
10174;SDS011;18221;38.704;0.152;2022-09-09T01:46:29;4.00;;;2.00;;
10174;SDS011;18221;38.704;0.152;2022-09-09T01:48:57;3.20;;;1.90;;
10174;SDS011;18221;38.704;0.152;2022-09-09T01:51:28;2.97;;;1.90;;
10174;SDS011;18221;38.704;0.152;2022-09-09T01:53:57;2.67;;;1.73;;
10174;SDS011;18221;38.704;0.152;2022-09-09T01:56:28;5.33;;;2.10;;
10174;SDS011;18221;38.704;0.152;2022-09-09T01:59:15;5.83;;;2.17;;
10174;SDS011;18221;38.704;0.152;2022-09-09T02:02:06;4.00;;;2.00;;
10174;SDS011;18221;38.704;0.152;2022-09-09T02:04:41;4.63;;;2.13;;
10174;SDS011;18221;38.704;0.152;2022-09-09T02:07:16;4.67;;;2.07;;
10174;SDS011;18221;38.704;0.152;2022-09-09T02:10:05;4.00;;;2.30;;
10174;SDS011;18221;38.704;0.152;2022-09-09T02:12:40;4.17;;;2.20;;
10174;SDS011;18221;38.704;0.152;2022-09-09T02:15:16;4.53;;;2.10;;
10174;SDS011;18221;38.704;0.152;2022-09-09T02:17:50;3.97;;;2.10;;
10174;SDS011;18221;38.704;0.152;2022-09-09T02:20:22;4.80;;;2.03;;
10174;SDS011;18221;38.704;0.152;2022-09-09T02:22:53;2.60;;;2.07;;
10174;SDS011;18221;38.704;0.152;2022-09-09T02:25:24;4.07;;;2.37;;
10174;SDS011;18221;38.704;0.152;2022-09-09T02:27:55;3.17;;;1.97;;
10174;SDS011;18221;38.704;0.152;2022-09-09T02:30:26;3.67;;;2.13;;
10174;SDS011;18221;38.704;0.152;2022-09-09T02:32:59;3.13;;;1.80;;
10174;SDS011;18221;38.704;0.152;2022-09-09T02:35:32;5.27;;;2.10;;
10174;SDS011;18221;38.704;0.152;2022-09-09T02:38:03;4.67;;;2.57;;
10174;SDS011;18221;38.704;0.152;2022-09-09T02:40:37;5.27;;;2.37;;
10174;SDS011;18221;38.704;0.152;2022-09-09T02:43:05;3.47;;;2.00;;
10174;SDS011;18221;38.704;0.152;2022-09-09T02:45:36;5.47;;;2.50;;
10174;SDS011;18221;38.704;0.152;2022-09-09T02:48:14;6.03;;;2.10;;
10174;SDS011;18221;38.704;0.152;2022-09-09T02:50:52;5.47;;;2.07;;
10174;SDS011;18221;38.704;0.152;2022-09-09T02:53:33;5.27;;;2.23;;
10174;SDS011;18221;38.704;0.152;2022-09-09T02:56:13;5.17;;;2.17;;
10174;SDS011;18221;38.704;0.152;2022-09-09T02:58:46;4.13;;;2.20;;
10174;SDS011;18221;38.704;0.152;2022-09-09T03:01:18;5.03;;;2.00;;
10174;SDS011;18221;38.704;0.152;2022-09-09T03:03:46;3.30;;;1.97;;
10174;SDS011;18221;38.704;0.152;2022-09-09T03:06:14;4.63;;;2.07;;
10174;SDS011;18221;38.704;0.152;2022-09-09T03:08:42;7.57;;;2.53;;
10174;SDS011;18221;38.704;0.152;2022-09-09T03:11:10;7.10;;;2.30;;
10174;SDS011;18221;38.704;0.152;2022-09-09T03:13:39;4.17;;;2.10;;
10174;SDS011;18221;38.704;0.152;2022-09-09T03:16:07;3.93;;;2.13;;
10174;SDS011;18221;38.704;0.152;2022-09-09T03:18:36;3.83;;;1.90;;
10174;SDS011;18221;38.704;0.152;2022-09-09T03:21:04;2.67;;;1.70;;
10174;SDS011;18221;38.704;0.152;2022-09-09T03:23:32;4.90;;;2.20;;
10174;SDS011;18221;38.704;0.152;2022-09-09T03:26:00;4.80;;;2.20;;
10174;SDS011;18221;38.704;0.152;2022-09-09T03:28:28;6.90;;;2.53;;
10174;SDS011;18221;38.704;0.152;2022-09-09T03:30:58;5.20;;;2.20;;
10174;SDS011;18221;38.704;0.152;2022-09-09T03:33:26;7.00;;;2.73;;
10174;SDS011;18221;38.704;0.152;2022-09-09T03:35:56;6.30;;;2.50;;
10174;SDS011;18221;38.704;0.152;2022-09-09T03:38:24;6.07;;;2.50;;
10174;SDS011;18221;38.704;0.152;2022-09-09T03:40:54;4.73;;;2.50;;
10174;SDS011;18221;38.704;0.152;2022-09-09T03:43:24;7.90;;;2.80;;
10174;SDS011;18221;38.704;0.152;2022-09-09T03:45:54;5.37;;;2.43;;
10174;SDS011;18221;38.704;0.152;2022-09-09T03:48:22;4.57;;;2.53;;
10174;SDS011;18221;38.704;0.152;2022-09-09T03:50:51;4.83;;;2.20;;
10174;SDS011;18221;38.704;0.152;2022-09-09T03:53:23;4.77;;;2.40;;
10174;SDS011;18221;38.704;0.152;2022-09-09T03:55:52;6.73;;;2.40;;
10174;SDS011;18221;38.704;0.152;2022-09-09T03:58:25;6.83;;;2.50;;
10174;SDS011;18221;38.704;0.152;2022-09-09T04:00:54;3.10;;;2.27;;
10174;SDS011;18221;38.704;0.152;2022-09-09T04:03:24;4.87;;;2.33;;
10174;SDS011;18221;38.704;0.152;2022-09-09T04:05:52;7.13;;;2.20;;
10174;SDS011;18221;38.704;0.152;2022-09-09T04:08:24;5.33;;;2.30;;
10174;SDS011;18221;38.704;0.152;2022-09-09T04:10:52;4.57;;;2.20;;
10174;SDS011;18221;38.704;0.152;2022-09-09T04:13:23;3.63;;;2.10;;
10174;SDS011;18221;38.704;0.152;2022-09-09T04:15:52;5.50;;;2.60;;
10174;SDS011;18221;38.704;0.152;2022-09-09T04:18:22;5.27;;;2.77;;
10174;SDS011;18221;38.704;0.152;2022-09-09T04:20:52;6.40;;;2.50;;
10174;SDS011;18221;38.704;0.152;2022-09-09T04:23:24;6.50;;;2.60;;
10174;SDS011;18221;38.704;0.152;2022-09-09T04:25:54;4.23;;;2.10;;
10174;SDS011;18221;38.704;0.152;2022-09-09T04:28:24;2.97;;;2.07;;
10174;SDS011;18221;38.704;0.152;2022-09-09T04:30:55;5.33;;;2.10;;
10174;SDS011;18221;38.704;0.152;2022-09-09T04:33:23;4.07;;;2.00;;
10174;SDS011;18221;38.704;0.152;2022-09-09T04:35:52;4.33;;;1.93;;
10174;SDS011;18221;38.704;0.152;2022-09-09T04:38:20;5.20;;;2.13;;
10174;SDS011;18221;38.704;0.152;2022-09-09T04:40:50;6.37;;;2.60;;
10174;SDS011;18221;38.704;0.152;2022-09-09T04:43:19;5.30;;;2.43;;
10174;SDS011;18221;38.704;0.152;2022-09-09T04:45:48;2.83;;;2.00;;
10174;SDS011;18221;38.704;0.152;2022-09-09T04:48:17;7.20;;;2.20;;
10174;SDS011;18221;38.704;0.152;2022-09-09T04:50:53;4.37;;;2.20;;
10174;SDS011;18221;38.704;0.152;2022-09-09T04:53:23;4.57;;;2.37;;
10174;SDS011;18221;38.704;0.152;2022-09-09T04:56:00;4.63;;;2.17;;
10174;SDS011;18221;38.704;0.152;2022-09-09T04:58:30;4.07;;;2.50;;
10174;SDS011;18221;38.704;0.152;2022-09-09T05:01:05;4.97;;;2.20;;
10174;SDS011;18221;38.704;0.152;2022-09-09T05:03:34;5.97;;;2.10;;
10174;SDS011;18221;38.704;0.152;2022-09-09T05:06:03;6.53;;;2.70;;
10174;SDS011;18221;38.704;0.152;2022-09-09T05:08:33;3.20;;;1.90;;
10174;SDS011;18221;38.704;0.152;2022-09-09T05:11:11;2.47;;;1.60;;
10174;SDS011;18221;38.704;0.152;2022-09-09T05:13:44;5.10;;;1.90;;
10174;SDS011;18221;38.704;0.152;2022-09-09T05:16:13;3.40;;;1.87;;
10174;SDS011;18221;38.704;0.152;2022-09-09T05:18:41;4.00;;;1.97;;
10174;SDS011;18221;38.704;0.152;2022-09-09T05:21:11;4.27;;;1.97;;
10174;SDS011;18221;38.704;0.152;2022-09-09T05:23:41;3.97;;;2.10;;
10174;SDS011;18221;38.704;0.152;2022-09-09T05:26:11;4.77;;;1.83;;
10174;SDS011;18221;38.704;0.152;2022-09-09T05:28:41;3.03;;;2.00;;
10174;SDS011;18221;38.704;0.152;2022-09-09T05:31:10;4.07;;;1.97;;
10174;SDS011;18221;38.704;0.152;2022-09-09T05:33:39;2.90;;;1.83;;
10174;SDS011;18221;38.704;0.152;2022-09-09T05:36:11;3.23;;;1.80;;
10174;SDS011;18221;38.704;0.152;2022-09-09T05:38:42;8.80;;;2.03;;
10174;SDS011;18221;38.704;0.152;2022-09-09T05:41:13;6.53;;;1.90;;
10174;SDS011;18221;38.704;0.152;2022-09-09T05:43:42;5.90;;;2.00;;
10174;SDS011;18221;38.704;0.152;2022-09-09T05:46:12;4.27;;;2.20;;
10174;SDS011;18221;38.704;0.152;2022-09-09T05:48:43;3.60;;;1.73;;
10174;SDS011;18221;38.704;0.152;2022-09-09T05:51:13;5.43;;;2.10;;
10174;SDS011;18221;38.704;0.152;2022-09-09T05:53:44;4.43;;;1.80;;
10174;SDS011;18221;38.704;0.152;2022-09-09T05:56:15;3.57;;;1.97;;
10174;SDS011;18221;38.704;0.152;2022-09-09T05:58:45;4.80;;;2.07;;
10174;SDS011;18221;38.704;0.152;2022-09-09T06:01:14;6.07;;;2.50;;
10174;SDS011;18221;38.704;0.152;2022-09-09T06:03:45;4.07;;;2.03;;
10174;SDS011;18221;38.704;0.152;2022-09-09T06:06:16;4.50;;;2.00;;
10174;SDS011;18221;38.704;0.152;2022-09-09T06:08:47;3.03;;;2.10;;
10174;SDS011;18221;38.704;0.152;2022-09-09T06:11:19;3.13;;;1.90;;
10174;SDS011;18221;38.704;0.152;2022-09-09T06:13:50;4.43;;;1.80;;
10174;SDS011;18221;38.704;0.152;2022-09-09T06:16:20;3.57;;;2.00;;
10174;SDS011;18221;38.704;0.152;2022-09-09T06:18:50;4.23;;;1.97;;
10174;SDS011;18221;38.704;0.152;2022-09-09T06:21:22;3.00;;;1.80;;
10174;SDS011;18221;38.704;0.152;2022-09-09T06:23:51;4.30;;;1.77;;
10174;SDS011;18221;38.704;0.152;2022-09-09T06:26:22;7.60;;;2.20;;
10174;SDS011;18221;38.704;0.152;2022-09-09T06:28:51;3.90;;;1.70;;
10174;SDS011;18221;38.704;0.152;2022-09-09T06:31:23;7.47;;;2.00;;
10174;SDS011;18221;38.704;0.152;2022-09-09T06:33:55;6.07;;;2.07;;
10174;SDS011;18221;38.704;0.152;2022-09-09T06:36:25;3.97;;;1.77;;
10174;SDS011;18221;38.704;0.152;2022-09-09T06:38:56;4.70;;;2.10;;
10174;SDS011;18221;38.704;0.152;2022-09-09T06:41:26;3.93;;;1.80;;
10174;SDS011;18221;38.704;0.152;2022-09-09T06:43:56;3.80;;;1.70;;
10174;SDS011;18221;38.704;0.152;2022-09-09T06:46:26;4.53;;;1.80;;
10174;SDS011;18221;38.704;0.152;2022-09-09T06:48:57;3.17;;;1.60;;
10174;SDS011;18221;38.704;0.152;2022-09-09T06:51:26;4.83;;;1.63;;
10174;SDS011;18221;38.704;0.152;2022-09-09T06:53:56;5.07;;;1.80;;
10174;SDS011;18221;38.704;0.152;2022-09-09T06:56:29;3.07;;;1.50;;
10174;SDS011;18221;38.704;0.152;2022-09-09T06:58:59;5.80;;;1.67;;
10174;SDS011;18221;38.704;0.152;2022-09-09T07:01:30;4.00;;;2.03;;
10174;SDS011;18221;38.704;0.152;2022-09-09T07:04:00;3.60;;;1.70;;
10174;SDS011;18221;38.704;0.152;2022-09-09T07:06:30;4.00;;;1.70;;
10174;SDS011;18221;38.704;0.152;2022-09-09T07:09:01;3.10;;;1.40;;
10174;SDS011;18221;38.704;0.152;2022-09-09T07:11:34;2.50;;;1.70;;
10174;SDS011;18221;38.704;0.152;2022-09-09T07:14:06;2.30;;;1.50;;
10174;SDS011;18221;38.704;0.152;2022-09-09T07:16:34;3.97;;;1.63;;
10174;SDS011;18221;38.704;0.152;2022-09-09T07:19:03;5.28;;;1.85;;
10174;SDS011;18221;38.704;0.152;2022-09-09T07:21:31;3.13;;;1.50;;
10174;SDS011;18221;38.704;0.152;2022-09-09T07:24:00;4.68;;;1.90;;
10174;SDS011;18221;38.704;0.152;2022-09-09T07:26:33;3.85;;;1.88;;
10174;SDS011;18221;38.704;0.152;2022-09-09T07:29:01;5.10;;;1.80;;
10174;SDS011;18221;38.704;0.152;2022-09-09T07:31:30;3.92;;;1.80;;
10174;SDS011;18221;38.704;0.152;2022-09-09T07:34:00;5.13;;;1.33;;
10174;SDS011;18221;38.704;0.152;2022-09-09T07:36:30;4.15;;;1.48;;
10174;SDS011;18221;38.704;0.152;2022-09-09T07:39:01;4.40;;;1.63;;
10174;SDS011;18221;38.704;0.152;2022-09-09T07:41:32;4.47;;;1.70;;
10174;SDS011;18221;38.704;0.152;2022-09-09T07:44:05;4.10;;;1.85;;
10174;SDS011;18221;38.704;0.152;2022-09-09T07:46:36;2.40;;;1.50;;
10174;SDS011;18221;38.704;0.152;2022-09-09T07:49:06;3.03;;;1.50;;
10174;SDS011;18221;38.704;0.152;2022-09-09T07:51:35;4.05;;;1.60;;
10174;SDS011;18221;38.704;0.152;2022-09-09T07:54:06;2.00;;;1.40;;
10174;SDS011;18221;38.704;0.152;2022-09-09T07:56:38;3.25;;;1.83;;
10174;SDS011;18221;38.704;0.152;2022-09-09T07:59:07;5.57;;;2.28;;
10174;SDS011;18221;38.704;0.152;2022-09-09T08:01:36;4.07;;;1.70;;
10174;SDS011;18221;38.704;0.152;2022-09-09T08:04:08;5.53;;;2.00;;
10174;SDS011;18221;38.704;0.152;2022-09-09T08:06:41;4.30;;;1.75;;
10174;SDS011;18221;38.704;0.152;2022-09-09T08:09:11;4.97;;;1.58;;
10174;SDS011;18221;38.704;0.152;2022-09-09T08:11:42;5.15;;;1.90;;
10174;SDS011;18221;38.704;0.152;2022-09-09T08:14:11;2.50;;;1.60;;
10174;SDS011;18221;38.704;0.152;2022-09-09T08:16:40;3.15;;;1.50;;
10174;SDS011;18221;38.704;0.152;2022-09-09T08:19:11;4.75;;;2.00;;
10174;SDS011;18221;38.704;0.152;2022-09-09T08:21:40;4.90;;;1.77;;
10174;SDS011;18221;38.704;0.152;2022-09-09T08:24:16;4.60;;;1.50;;
10174;SDS011;18221;38.704;0.152;2022-09-09T08:26:46;3.72;;;1.75;;
10174;SDS011;18221;38.704;0.152;2022-09-09T08:29:15;6.00;;;1.95;;
10174;SDS011;18221;38.704;0.152;2022-09-09T08:31:44;8.48;;;1.98;;
10174;SDS011;18221;38.704;0.152;2022-09-09T08:34:14;5.63;;;1.80;;
10174;SDS011;18221;38.704;0.152;2022-09-09T08:36:43;3.50;;;1.63;;
10174;SDS011;18221;38.704;0.152;2022-09-09T08:39:14;2.90;;;1.70;;
10174;SDS011;18221;38.704;0.152;2022-09-09T08:45:02;3.38;;;1.90;;
10174;SDS011;18221;38.704;0.152;2022-09-09T08:48:04;4.18;;;1.90;;
10174;SDS011;18221;38.704;0.152;2022-09-09T08:50:49;5.05;;;2.17;;
10174;SDS011;18221;38.704;0.152;2022-09-09T08:53:21;6.93;;;2.28;;
10174;SDS011;18221;38.704;0.152;2022-09-09T08:55:55;14.02;;;2.67;;
10174;SDS011;18221;38.704;0.152;2022-09-09T08:58:28;5.07;;;2.22;;
10174;SDS011;18221;38.704;0.152;2022-09-09T09:01:21;5.47;;;1.98;;
10174;SDS011;18221;38.704;0.152;2022-09-09T09:04:13;3.30;;;1.80;;
10174;SDS011;18221;38.704;0.152;2022-09-09T09:06:59;6.70;;;2.17;;
10174;SDS011;18221;38.704;0.152;2022-09-09T09:09:45;4.00;;;1.80;;
10174;SDS011;18221;38.704;0.152;2022-09-09T09:12:24;3.33;;;1.80;;
10174;SDS011;18221;38.704;0.152;2022-09-09T09:14:59;6.68;;;2.00;;
10174;SDS011;18221;38.704;0.152;2022-09-09T09:17:27;2.85;;;1.80;;
10174;SDS011;18221;38.704;0.152;2022-09-09T09:19:58;3.53;;;1.80;;
10174;SDS011;18221;38.704;0.152;2022-09-09T09:22:30;4.10;;;1.90;;
10174;SDS011;18221;38.704;0.152;2022-09-09T09:25:08;5.35;;;2.00;;
10174;SDS011;18221;38.704;0.152;2022-09-09T09:27:48;5.35;;;1.83;;
10174;SDS011;18221;38.704;0.152;2022-09-09T09:30:28;5.10;;;1.75;;
10174;SDS011;18221;38.704;0.152;2022-09-09T09:33:04;4.32;;;1.77;;
10174;SDS011;18221;38.704;0.152;2022-09-09T09:35:42;3.53;;;1.70;;
10174;SDS011;18221;38.704;0.152;2022-09-09T09:38:12;6.82;;;2.00;;
10174;SDS011;18221;38.704;0.152;2022-09-09T09:40:49;2.33;;;1.60;;
10174;SDS011;18221;38.704;0.152;2022-09-09T09:43:21;4.57;;;2.00;;
10174;SDS011;18221;38.704;0.152;2022-09-09T09:45:56;6.18;;;1.60;;
10174;SDS011;18221;38.704;0.152;2022-09-09T09:48:24;5.63;;;1.85;;
10174;SDS011;18221;38.704;0.152;2022-09-09T09:50:54;4.45;;;1.85;;
10174;SDS011;18221;38.704;0.152;2022-09-09T09:53:28;3.35;;;1.95;;
10174;SDS011;18221;38.704;0.152;2022-09-09T09:55:59;7.82;;;1.83;;
10174;SDS011;18221;38.704;0.152;2022-09-09T09:58:30;3.83;;;1.92;;
10174;SDS011;18221;38.704;0.152;2022-09-09T10:01:02;3.30;;;1.77;;
10174;SDS011;18221;38.704;0.152;2022-09-09T10:03:30;5.80;;;2.00;;
10174;SDS011;18221;38.704;0.152;2022-09-09T10:06:02;4.07;;;1.88;;
10174;SDS011;18221;38.704;0.152;2022-09-09T10:08:33;4.10;;;2.00;;
10174;SDS011;18221;38.704;0.152;2022-09-09T10:11:17;3.75;;;1.80;;
10174;SDS011;18221;38.704;0.152;2022-09-09T10:14:04;3.80;;;1.83;;
10174;SDS011;18221;38.704;0.152;2022-09-09T10:16:49;6.28;;;2.00;;
10174;SDS011;18221;38.704;0.152;2022-09-09T10:19:34;3.47;;;1.80;;
10174;SDS011;18221;38.704;0.152;2022-09-09T10:22:14;8.02;;;2.17;;
10174;SDS011;18221;38.704;0.152;2022-09-09T10:25:04;5.15;;;2.05;;
10174;SDS011;18221;38.704;0.152;2022-09-09T10:28:00;3.65;;;1.80;;
10174;SDS011;18221;38.704;0.152;2022-09-09T10:31:16;4.25;;;1.85;;
10174;SDS011;18221;38.704;0.152;2022-09-09T10:34:00;7.68;;;2.00;;
10174;SDS011;18221;38.704;0.152;2022-09-09T10:36:43;5.78;;;2.10;;
10174;SDS011;18221;38.704;0.152;2022-09-09T10:39:19;4.38;;;2.05;;
10174;SDS011;18221;38.704;0.152;2022-09-09T10:42:06;7.22;;;1.80;;
10174;SDS011;18221;38.704;0.152;2022-09-09T10:44:50;4.82;;;1.75;;
10174;SDS011;18221;38.704;0.152;2022-09-09T10:47:39;5.15;;;1.60;;
10174;SDS011;18221;38.704;0.152;2022-09-09T10:50:35;5.82;;;1.90;;
10174;SDS011;18221;38.704;0.152;2022-09-09T10:53:17;7.20;;;2.00;;
10174;SDS011;18221;38.704;0.152;2022-09-09T10:56:01;3.00;;;2.00;;
10174;SDS011;18221;38.704;0.152;2022-09-09T10:58:36;3.65;;;2.05;;
10174;SDS011;18221;38.704;0.152;2022-09-09T11:01:13;4.07;;;2.15;;
10174;SDS011;18221;38.704;0.152;2022-09-09T11:03:50;4.15;;;2.10;;
10174;SDS011;18221;38.704;0.152;2022-09-09T11:06:28;7.18;;;2.60;;
10174;SDS011;18221;38.704;0.152;2022-09-09T11:09:04;5.30;;;2.33;;
10174;SDS011;18221;38.704;0.152;2022-09-09T11:11:41;5.70;;;2.03;;
10174;SDS011;18221;38.704;0.152;2022-09-09T11:14:19;4.88;;;2.20;;
10174;SDS011;18221;38.704;0.152;2022-09-09T11:16:58;3.67;;;2.25;;
10174;SDS011;18221;38.704;0.152;2022-09-09T11:19:34;4.43;;;2.10;;
10174;SDS011;18221;38.704;0.152;2022-09-09T11:22:07;4.70;;;2.05;;
10174;SDS011;18221;38.704;0.152;2022-09-09T11:24:44;10.13;;;2.75;;
10174;SDS011;18221;38.704;0.152;2022-09-09T11:27:20;3.70;;;2.42;;
10174;SDS011;18221;38.704;0.152;2022-09-09T11:30:05;6.93;;;2.60;;
10174;SDS011;18221;38.704;0.152;2022-09-09T11:36:01;5.35;;;2.50;;
10174;SDS011;18221;38.704;0.152;2022-09-09T11:38:55;6.38;;;2.13;;
10174;SDS011;18221;38.704;0.152;2022-09-09T11:41:46;9.02;;;2.65;;
10174;SDS011;18221;38.704;0.152;2022-09-09T11:44:17;6.95;;;2.25;;
10174;SDS011;18221;38.704;0.152;2022-09-09T11:46:54;5.80;;;2.38;;
10174;SDS011;18221;38.704;0.152;2022-09-09T11:52:11;5.82;;;2.53;;
10174;SDS011;18221;38.704;0.152;2022-09-09T11:54:46;5.97;;;2.40;;
10174;SDS011;18221;38.704;0.152;2022-09-09T11:57:23;6.22;;;2.40;;
10174;SDS011;18221;38.704;0.152;2022-09-09T12:00:01;7.60;;;3.08;;
10174;SDS011;18221;38.704;0.152;2022-09-09T12:02:30;4.47;;;2.30;;
10174;SDS011;18221;38.704;0.152;2022-09-09T12:05:00;7.03;;;2.67;;
10174;SDS011;18221;38.704;0.152;2022-09-09T12:07:35;7.25;;;2.70;;
10174;SDS011;18221;38.704;0.152;2022-09-09T12:10:20;4.53;;;2.53;;
10174;SDS011;18221;38.704;0.152;2022-09-09T12:12:53;5.85;;;2.45;;
10174;SDS011;18221;38.704;0.152;2022-09-09T12:15:23;5.38;;;2.50;;
10174;SDS011;18221;38.704;0.152;2022-09-09T12:17:55;5.68;;;2.78;;
10174;SDS011;18221;38.704;0.152;2022-09-09T12:20:30;7.07;;;2.80;;
10174;SDS011;18221;38.704;0.152;2022-09-09T12:23:13;5.50;;;2.50;;
10174;SDS011;18221;38.704;0.152;2022-09-09T12:26:15;6.13;;;2.88;;
10174;SDS011;18221;38.704;0.152;2022-09-09T12:29:04;3.88;;;2.70;;
10174;SDS011;18221;38.704;0.152;2022-09-09T12:31:53;4.63;;;2.80;;
10174;SDS011;18221;38.704;0.152;2022-09-09T12:34:32;5.20;;;2.72;;
10174;SDS011;18221;38.704;0.152;2022-09-09T12:37:08;6.38;;;2.70;;
10174;SDS011;18221;38.704;0.152;2022-09-09T12:39:49;5.53;;;3.20;;
10174;SDS011;18221;38.704;0.152;2022-09-09T12:42:24;5.38;;;2.80;;
10174;SDS011;18221;38.704;0.152;2022-09-09T12:44:54;4.85;;;2.60;;
10174;SDS011;18221;38.704;0.152;2022-09-09T12:47:25;4.20;;;2.80;;
10174;SDS011;18221;38.704;0.152;2022-09-09T12:50:11;7.15;;;2.60;;
10174;SDS011;18221;38.704;0.152;2022-09-09T12:52:46;6.13;;;3.00;;
10174;SDS011;18221;38.704;0.152;2022-09-09T12:55:19;5.30;;;2.60;;
10174;SDS011;18221;38.704;0.152;2022-09-09T12:57:51;5.07;;;2.92;;
10174;SDS011;18221;38.704;0.152;2022-09-09T13:00:20;4.13;;;2.72;;
10174;SDS011;18221;38.704;0.152;2022-09-09T13:02:52;7.93;;;2.88;;
10174;SDS011;18221;38.704;0.152;2022-09-09T13:05:23;6.43;;;3.13;;
10174;SDS011;18221;38.704;0.152;2022-09-09T13:08:00;7.07;;;2.97;;
10174;SDS011;18221;38.704;0.152;2022-09-09T13:10:30;7.80;;;2.90;;
10174;SDS011;18221;38.704;0.152;2022-09-09T13:13:05;6.10;;;2.47;;
10174;SDS011;18221;38.704;0.152;2022-09-09T13:15:48;4.45;;;2.38;;
10174;SDS011;18221;38.704;0.152;2022-09-09T13:18:21;6.65;;;2.90;;
10174;SDS011;18221;38.704;0.152;2022-09-09T13:20:53;5.85;;;2.70;;
10174;SDS011;18221;38.704;0.152;2022-09-09T13:23:24;4.93;;;2.90;;
10174;SDS011;18221;38.704;0.152;2022-09-09T13:25:56;7.93;;;3.85;;
10174;SDS011;18221;38.704;0.152;2022-09-09T13:28:28;9.00;;;3.92;;
10174;SDS011;18221;38.704;0.152;2022-09-09T13:30:58;8.30;;;4.07;;
10174;SDS011;18221;38.704;0.152;2022-09-09T13:33:31;7.47;;;4.63;;
10174;SDS011;18221;38.704;0.152;2022-09-09T13:36:02;12.70;;;4.00;;
10174;SDS011;18221;38.704;0.152;2022-09-09T13:38:33;6.68;;;4.10;;
10174;SDS011;18221;38.704;0.152;2022-09-09T13:41:06;10.25;;;3.72;;
10174;SDS011;18221;38.704;0.152;2022-09-09T13:46:41;9.13;;;3.63;;
10174;SDS011;18221;38.704;0.152;2022-09-09T13:49:18;6.03;;;3.50;;
10174;SDS011;18221;38.704;0.152;2022-09-09T13:52:02;5.82;;;3.10;;
10174;SDS011;18221;38.704;0.152;2022-09-09T13:54:33;5.72;;;3.00;;
10174;SDS011;18221;38.704;0.152;2022-09-09T13:57:11;5.75;;;3.00;;
10174;SDS011;18221;38.704;0.152;2022-09-09T13:59:44;4.63;;;2.53;;
10174;SDS011;18221;38.704;0.152;2022-09-09T14:02:28;8.95;;;2.80;;
10174;SDS011;18221;38.704;0.152;2022-09-09T14:04:56;5.45;;;2.58;;
10174;SDS011;18221;38.704;0.152;2022-09-09T14:07:31;7.93;;;3.20;;
10174;SDS011;18221;38.704;0.152;2022-09-09T14:10:04;5.45;;;2.50;;
10174;SDS011;18221;38.704;0.152;2022-09-09T14:12:34;5.75;;;2.67;;
10174;SDS011;18221;38.704;0.152;2022-09-09T14:15:04;6.47;;;3.20;;
10174;SDS011;18221;38.704;0.152;2022-09-09T14:17:36;5.53;;;2.60;;
10174;SDS011;18221;38.704;0.152;2022-09-09T14:20:22;8.50;;;2.35;;
10174;SDS011;18221;38.704;0.152;2022-09-09T14:22:50;5.63;;;2.03;;
10174;SDS011;18221;38.704;0.152;2022-09-09T14:25:18;7.85;;;2.72;;
10174;SDS011;18221;38.704;0.152;2022-09-09T14:27:51;7.80;;;2.80;;
10174;SDS011;18221;38.704;0.152;2022-09-09T14:30:20;6.22;;;2.50;;
10174;SDS011;18221;38.704;0.152;2022-09-09T14:32:48;5.00;;;2.40;;
10174;SDS011;18221;38.704;0.152;2022-09-09T14:35:16;5.90;;;2.20;;
10174;SDS011;18221;38.704;0.152;2022-09-09T14:37:44;8.20;;;2.20;;
10174;SDS011;18221;38.704;0.152;2022-09-09T14:40:12;6.20;;;2.03;;
10174;SDS011;18221;38.704;0.152;2022-09-09T14:42:41;5.07;;;2.28;;
10174;SDS011;18221;38.704;0.152;2022-09-09T14:45:10;5.90;;;2.40;;
10174;SDS011;18221;38.704;0.152;2022-09-09T14:47:40;5.28;;;2.30;;
10174;SDS011;18221;38.704;0.152;2022-09-09T14:50:08;4.63;;;2.10;;
10174;SDS011;18221;38.704;0.152;2022-09-09T14:52:37;7.90;;;2.75;;
10174;SDS011;18221;38.704;0.152;2022-09-09T14:55:06;8.35;;;2.67;;
10174;SDS011;18221;38.704;0.152;2022-09-09T14:57:35;6.63;;;2.38;;
10174;SDS011;18221;38.704;0.152;2022-09-09T15:00:04;7.95;;;2.47;;
10174;SDS011;18221;38.704;0.152;2022-09-09T15:02:33;7.15;;;2.58;;
10174;SDS011;18221;38.704;0.152;2022-09-09T15:05:03;8.38;;;2.55;;
10174;SDS011;18221;38.704;0.152;2022-09-09T15:07:32;6.85;;;2.60;;
10174;SDS011;18221;38.704;0.152;2022-09-09T15:09:59;4.60;;;2.47;;
10174;SDS011;18221;38.704;0.152;2022-09-09T15:12:28;6.28;;;2.45;;
10174;SDS011;18221;38.704;0.152;2022-09-09T15:14:55;4.63;;;2.13;;
10174;SDS011;18221;38.704;0.152;2022-09-09T15:17:23;5.60;;;2.70;;
10174;SDS011;18221;38.704;0.152;2022-09-09T15:19:52;6.38;;;2.28;;
10174;SDS011;18221;38.704;0.152;2022-09-09T15:22:22;7.30;;;2.85;;
10174;SDS011;18221;38.704;0.152;2022-09-09T15:24:50;6.78;;;3.00;;
10174;SDS011;18221;38.704;0.152;2022-09-09T15:27:18;5.72;;;2.55;;
10174;SDS011;18221;38.704;0.152;2022-09-09T15:29:46;6.30;;;2.60;;
10174;SDS011;18221;38.704;0.152;2022-09-09T15:32:14;5.47;;;2.53;;
10174;SDS011;18221;38.704;0.152;2022-09-09T15:34:42;7.30;;;2.75;;
10174;SDS011;18221;38.704;0.152;2022-09-09T15:37:10;4.13;;;2.40;;
10174;SDS011;18221;38.704;0.152;2022-09-09T15:39:40;6.75;;;2.70;;
10174;SDS011;18221;38.704;0.152;2022-09-09T15:42:08;5.65;;;2.30;;
10174;SDS011;18221;38.704;0.152;2022-09-09T15:44:39;4.28;;;2.10;;
10174;SDS011;18221;38.704;0.152;2022-09-09T15:47:09;7.20;;;2.35;;
10174;SDS011;18221;38.704;0.152;2022-09-09T15:49:40;6.55;;;2.17;;